Time;durP1;ratioP1;P1;durP2;ratioP2;P2;SDS_P1;SDS_P2;PMS_P1;PMS_P2;Temp;Humidity;BMP_temperature;BMP_pressure;BME280_temperature;BME280_humidity;BME280_pressure;Samples;Min_cycle;Max_cycle;Signal;HPM_P1;HPM_P2
2022/05/28 00:01:24;;;;;;;3.90;1.57;;;16.20;69.40;;;;;;5074474;28;20655;-64
2022/05/28 00:03:53;;;;;;;2.40;1.40;;;16.20;69.10;;;;;;5074486;28;20531;-65
2022/05/28 00:06:24;;;;;;;3.37;1.33;;;16.20;69.40;;;;;;5074686;28;20443;-66
2022/05/28 00:08:52;;;;;;;5.53;1.23;;;16.10;70.30;;;;;;5074556;28;20530;-65
2022/05/28 00:11:22;;;;;;;3.03;1.30;;;16.10;70.70;;;;;;5074432;28;20444;-64
2022/05/28 00:13:50;;;;;;;4.20;1.50;;;16.10;71.20;;;;;;5074358;28;20491;-65
2022/05/28 00:16:18;;;;;;;6.00;1.53;;;16.10;71.70;;;;;;5074463;28;20500;-64
2022/05/28 00:18:46;;;;;;;2.27;1.37;;;16.10;71.50;;;;;;5073896;28;20494;-64
2022/05/28 00:21:14;;;;;;;2.40;1.47;;;16.10;72.20;;;;;;5074017;28;20488;-64
2022/05/28 00:23:44;;;;;;;4.10;1.23;;;16.10;72.30;;;;;;5074292;28;20527;-65
2022/05/28 00:26:12;;;;;;;2.70;1.83;;;16.00;72.40;;;;;;5074295;28;20443;-65
2022/05/28 00:28:39;;;;;;;4.00;1.57;;;15.90;72.40;;;;;;5074153;28;20534;-64
2022/05/28 00:31:06;;;;;;;2.80;1.60;;;15.90;72.60;;;;;;5073940;28;20519;-64
2022/05/28 00:33:33;;;;;;;2.30;1.30;;;15.90;73.30;;;;;;5074088;28;20527;-64
2022/05/28 00:36:00;;;;;;;4.47;1.67;;;15.80;73.10;;;;;;5074083;28;20443;-65
2022/05/28 00:38:27;;;;;;;1.93;1.03;;;15.70;73.10;;;;;;5073927;28;20443;-65
2022/05/28 00:40:58;;;;;;;2.07;1.20;;;15.60;73.80;;;;;;5073937;28;21000;-64
2022/05/28 00:43:27;;;;;;;2.70;1.53;;;15.50;74.70;;;;;;5074067;28;20785;-64
2022/05/28 00:46:00;;;;;;;2.30;1.50;;;15.50;74.70;;;;;;5074045;28;20997;-65
2022/05/28 00:48:32;;;;;;;2.63;1.80;;;15.50;75.00;;;;;;5073777;28;20468;-65
2022/05/28 00:51:05;;;;;;;2.83;1.90;;;15.50;75.00;;;;;;5073898;28;20440;-64
2022/05/28 00:53:33;;;;;;;2.43;1.30;;;15.50;75.10;;;;;;5073685;28;20514;-64
2022/05/28 00:56:05;;;;;;;2.83;1.30;;;15.50;75.10;;;;;;5073817;28;21021;-65
2022/05/28 00:58:32;;;;;;;2.50;1.53;;;15.50;75.20;;;;;;5073798;28;20432;-64
2022/05/28 01:01:00;;;;;;;2.83;1.77;;;15.50;76.20;;;;;;5073618;28;20490;-64
2022/05/28 01:03:33;;;;;;;2.40;1.57;;;15.50;76.50;;;;;;5073422;28;20560;-64
2022/05/28 01:06:07;;;;;;;2.83;1.30;;;15.50;75.70;;;;;;5073893;28;20476;-64
2022/05/28 01:08:39;;;;;;;3.13;1.50;;;15.40;75.00;;;;;;5073541;28;20482;-64
2022/05/28 01:11:16;;;;;;;2.20;1.77;;;15.40;75.10;;;;;;5073513;28;20444;-64
2022/05/28 01:13:51;;;;;;;2.40;1.40;;;15.40;74.40;;;;;;5073583;28;20444;-64
2022/05/28 01:16:25;;;;;;;2.43;1.10;;;15.30;75.10;;;;;;5073696;28;20432;-65
2022/05/28 01:18:57;;;;;;;3.20;1.70;;;15.30;75.50;;;;;;5073296;28;20436;-65
2022/05/28 01:21:38;;;;;;;1.90;1.10;;;15.30;75.40;;;;;;5073313;28;20484;-64
2022/05/28 01:24:14;;;;;;;2.67;1.20;;;15.30;75.10;;;;;;5073462;28;20440;-65
2022/05/28 01:26:48;;;;;;;2.40;1.47;;;15.40;75.10;;;;;;5073386;28;20522;-64
2022/05/28 01:29:18;;;;;;;2.67;1.60;;;15.40;75.00;;;;;;5073146;28;20485;-64
2022/05/28 01:31:46;;;;;;;4.13;1.50;;;15.30;75.10;;;;;;5073442;28;20519;-64
2022/05/28 01:34:16;;;;;;;2.00;1.00;;;15.30;75.30;;;;;;5073127;28;20767;-64
2022/05/28 01:36:43;;;;;;;2.07;1.17;;;15.30;75.80;;;;;;5073065;28;20436;-64
2022/05/28 01:39:12;;;;;;;2.50;1.37;;;15.30;75.80;;;;;;5072937;28;20523;-66
2022/05/28 01:41:40;;;;;;;2.53;1.23;;;15.40;75.50;;;;;;5072794;28;20566;-65
2022/05/28 01:44:11;;;;;;;4.50;1.63;;;15.40;75.00;;;;;;5073009;28;20523;-64
2022/05/28 01:46:41;;;;;;;2.97;1.40;;;15.40;75.00;;;;;;5073054;28;20530;-64
2022/05/28 01:49:13;;;;;;;2.37;1.50;;;15.50;75.00;;;;;;5072906;28;20503;-64
2022/05/28 01:51:47;;;;;;;2.80;1.50;;;15.50;75.00;;;;;;5073090;28;20442;-64
2022/05/28 01:54:17;;;;;;;2.70;1.23;;;15.40;75.00;;;;;;5072763;28;20435;-64
2022/05/28 01:56:48;;;;;;;3.80;1.70;;;15.30;75.00;;;;;;5072310;28;20867;-64
2022/05/28 01:59:20;;;;;;;3.80;2.13;;;15.20;75.20;;;;;;5072788;28;20448;-64
2022/05/28 02:01:48;;;;;;;2.50;1.33;;;15.20;75.80;;;;;;5072782;28;20515;-65
2022/05/28 02:04:15;;;;;;;2.60;1.90;;;15.20;75.90;;;;;;5072757;28;20526;-65
2022/05/28 02:06:43;;;;;;;2.93;1.53;;;15.20;76.00;;;;;;5072758;28;20435;-65
2022/05/28 02:09:13;;;;;;;2.80;1.50;;;15.20;76.30;;;;;;5072729;28;20448;-64
2022/05/28 02:11:57;;;;;;;2.50;1.53;;;15.20;76.60;;;;;;5073030;28;20455;-64
2022/05/28 02:14:32;;;;;;;2.27;1.37;;;15.10;76.40;;;;;;5072727;28;20444;-65
2022/05/28 02:17:11;;;;;;;2.40;1.60;;;15.10;76.80;;;;;;5072484;28;20467;-64
2022/05/28 02:19:48;;;;;;;2.67;1.70;;;15.10;77.20;;;;;;5072456;28;20454;-64
2022/05/28 02:22:25;;;;;;;2.20;1.60;;;15.10;78.40;;;;;;5072679;28;20523;-64
2022/05/28 02:25:00;;;;;;;2.27;1.30;;;15.10;77.20;;;;;;5072138;28;20922;-64
2022/05/28 02:27:29;;;;;;;3.00;1.50;;;15.00;77.30;;;;;;5072283;28;20424;-65
2022/05/28 02:30:01;;;;;;;2.50;1.57;;;15.10;78.00;;;;;;5072556;28;20450;-64
2022/05/28 02:32:28;;;;;;;3.93;1.90;;;15.10;78.10;;;;;;5072608;28;20440;-65
2022/05/28 02:34:55;;;;;;;3.40;2.00;;;15.00;77.90;;;;;;5072691;28;20522;-64
2022/05/28 02:37:24;;;;;;;3.80;1.70;;;14.90;78.40;;;;;;5072378;28;21001;-65
2022/05/28 02:39:51;;;;;;;2.90;1.40;;;15.00;78.80;;;;;;5072434;28;20802;-65
2022/05/28 02:42:18;;;;;;;2.27;1.67;;;15.00;78.90;;;;;;5072376;28;20579;-69
2022/05/28 02:44:46;;;;;;;5.20;1.60;;;14.90;79.90;;;;;;5071955;28;20942;-64
2022/05/28 02:47:14;;;;;;;2.67;1.50;;;14.90;79.40;;;;;;5072214;28;20450;-64
2022/05/28 02:49:41;;;;;;;5.50;1.80;;;14.90;79.60;;;;;;5072344;28;20443;-65
2022/05/28 02:52:09;;;;;;;2.70;1.70;;;15.00;79.80;;;;;;5072467;28;20501;-65
2022/05/28 02:54:36;;;;;;;3.07;1.80;;;15.00;80.00;;;;;;5072485;28;20519;-64
2022/05/28 02:57:04;;;;;;;3.13;2.17;;;15.00;80.00;;;;;;5072225;28;20447;-64
2022/05/28 02:59:32;;;;;;;4.70;1.57;;;15.00;80.10;;;;;;5072132;28;20952;-64
2022/05/28 03:01:58;;;;;;;2.37;1.70;;;15.00;80.30;;;;;;5072230;28;20490;-65
2022/05/28 03:04:27;;;;;;;3.67;1.87;;;15.00;80.50;;;;;;5072401;28;20526;-65
2022/05/28 03:06:54;;;;;;;3.67;1.90;;;15.00;80.30;;;;;;5072006;28;20523;-64
2022/05/28 03:09:22;;;;;;;3.03;1.20;;;15.10;80.50;;;;;;5074263;28;20444;-65
2022/05/28 03:11:49;;;;;;;2.30;1.53;;;15.10;80.20;;;;;;5075964;28;20840;-64
2022/05/28 03:14:17;;;;;;;2.53;1.70;;;15.10;80.10;;;;;;5075658;28;20455;-64
2022/05/28 03:16:44;;;;;;;2.40;1.70;;;15.10;80.20;;;;;;5075865;28;20435;-65
2022/05/28 03:19:11;;;;;;;2.47;1.40;;;15.10;80.20;;;;;;5075637;28;20519;-64
2022/05/28 03:21:40;;;;;;;3.93;1.80;;;15.10;80.20;;;;;;5075534;28;20483;-64
2022/05/28 03:24:07;;;;;;;2.30;1.60;;;15.10;80.00;;;;;;5075699;28;20519;-65
2022/05/28 03:26:35;;;;;;;3.80;1.73;;;15.10;80.10;;;;;;5075690;28;20539;-64
2022/05/28 03:29:02;;;;;;;2.90;1.83;;;15.10;79.80;;;;;;5075664;28;20535;-65
2022/05/28 03:31:30;;;;;;;4.17;1.90;;;15.20;79.70;;;;;;5075571;28;20534;-64
2022/05/28 03:33:58;;;;;;;3.20;2.10;;;15.20;79.80;;;;;;5075463;28;20851;-64
2022/05/28 03:36:26;;;;;;;2.87;1.73;;;15.20;79.40;;;;;;5075594;28;20523;-65
2022/05/28 03:38:54;;;;;;;2.53;2.07;;;15.20;79.10;;;;;;5075192;28;20440;-65
2022/05/28 03:41:22;;;;;;;3.03;2.00;;;15.20;79.60;;;;;;5075379;28;20472;-65
2022/05/28 03:43:49;;;;;;;3.53;1.97;;;15.20;79.60;;;;;;5075226;28;20523;-65
2022/05/28 03:46:25;;;;;;;3.37;2.00;;;15.20;79.40;;;;;;5075364;28;20440;-64
2022/05/28 03:48:56;;;;;;;3.00;1.93;;;15.20;79.50;;;;;;5075041;28;20503;-65
2022/05/28 03:51:23;;;;;;;3.40;2.07;;;15.20;79.50;;;;;;5075268;28;20447;-64
2022/05/28 03:53:51;;;;;;;3.20;1.97;;;15.20;79.40;;;;;;5075217;28;20442;-65
2022/05/28 03:56:20;;;;;;;2.37;1.43;;;15.20;79.70;;;;;;5075146;28;20527;-64
2022/05/28 03:58:49;;;;;;;4.30;1.97;;;15.20;80.90;;;;;;5075186;28;20451;-64
2022/05/28 04:01:16;;;;;;;4.30;1.90;;;15.30;79.90;;;;;;5074949;28;20444;-64
2022/05/28 04:03:43;;;;;;;3.47;2.27;;;15.20;79.30;;;;;;5074901;28;20471;-66
2022/05/28 04:06:11;;;;;;;5.60;1.90;;;15.20;79.70;;;;;;5074878;28;20535;-64
2022/05/28 04:08:39;;;;;;;3.10;2.00;;;15.20;80.20;;;;;;5075000;28;20443;-64
2022/05/28 04:11:06;;;;;;;9.43;2.20;;;15.20;81.30;;;;;;5074976;28;20964;-65
2022/05/28 04:13:35;;;;;;;6.90;2.27;;;15.30;80.60;;;;;;5074627;28;20527;-65
2022/05/28 04:16:03;;;;;;;2.50;1.63;;;15.30;80.60;;;;;;5074680;28;20519;-65
2022/05/28 04:18:30;;;;;;;3.30;1.97;;;15.40;80.90;;;;;;5074862;28;20437;-65
2022/05/28 04:20:57;;;;;;;2.83;1.80;;;15.40;80.90;;;;;;5074476;28;20527;-64
2022/05/28 04:23:23;;;;;;;4.50;1.40;;;15.50;81.10;;;;;;5074386;28;20529;-65
2022/05/28 04:25:50;;;;;;;3.20;2.17;;;15.50;80.70;;;;;;5074769;28;20432;-65
2022/05/28 04:28:18;;;;;;;2.70;2.20;;;15.50;80.60;;;;;;5074330;28;20531;-64
2022/05/28 04:30:46;;;;;;;2.70;1.90;;;15.50;80.40;;;;;;5074635;28;20497;-64
2022/05/28 04:33:13;;;;;;;3.10;1.73;;;15.50;79.80;;;;;;5074797;28;20498;-64
2022/05/28 04:35:40;;;;;;;3.67;1.87;;;15.50;79.20;;;;;;5074424;28;20804;-65
2022/05/28 04:38:07;;;;;;;3.90;1.60;;;15.50;78.80;;;;;;5074504;28;20444;-65
2022/05/28 04:40:34;;;;;;;3.90;2.10;;;15.50;78.80;;;;;;5074225;28;20522;-64
2022/05/28 04:43:01;;;;;;;2.80;2.13;;;15.50;78.90;;;;;;5074139;28;20494;-64
2022/05/28 04:45:28;;;;;;;6.80;2.33;;;15.50;78.60;;;;;;5074546;28;20442;-64
2022/05/28 04:47:56;;;;;;;3.80;2.63;;;15.40;78.50;;;;;;5074113;28;20551;-65
2022/05/28 04:50:23;;;;;;;10.73;2.63;;;15.40;78.80;;;;;;5073699;28;20485;-65
2022/05/28 04:52:50;;;;;;;3.20;2.20;;;15.50;78.80;;;;;;5073721;28;20444;-66
2022/05/28 04:55:17;;;;;;;3.00;2.17;;;15.50;78.80;;;;;;5073791;28;20928;-64
2022/05/28 04:57:44;;;;;;;3.23;2.23;;;15.50;79.10;;;;;;5073279;28;20543;-64
2022/05/28 05:00:14;;;;;;;6.13;2.70;;;15.40;79.60;;;;;;5073912;28;20451;-65
2022/05/28 05:02:41;;;;;;;3.97;2.43;;;15.50;79.70;;;;;;5073717;28;20475;-65
2022/05/28 05:05:10;;;;;;;5.80;3.33;;;15.50;79.50;;;;;;5073921;28;20467;-64
2022/05/28 05:07:37;;;;;;;7.50;3.20;;;15.40;79.40;;;;;;5073690;28;20444;-64
2022/05/28 05:10:05;;;;;;;6.23;2.73;;;15.40;79.20;;;;;;5073842;28;20791;-64
2022/05/28 05:12:32;;;;;;;4.17;2.63;;;15.40;79.70;;;;;;5073703;28;20828;-65
2022/05/28 05:14:59;;;;;;;6.03;3.13;;;15.40;80.30;;;;;;5073469;28;20937;-64
2022/05/28 05:17:26;;;;;;;6.70;2.63;;;15.40;80.30;;;;;;5073712;28;20522;-65
2022/05/28 05:19:54;;;;;;;4.87;3.03;;;15.40;80.00;;;;;;5073569;28;20526;-65
2022/05/28 05:22:22;;;;;;;5.70;2.63;;;15.40;79.70;;;;;;5073577;28;20480;-65
2022/05/28 05:24:49;;;;;;;5.10;3.10;;;15.40;79.40;;;;;;5073745;28;20535;-64
2022/05/28 05:27:16;;;;;;;5.63;3.37;;;15.40;79.30;;;;;;5073388;28;20526;-64
2022/05/28 05:29:43;;;;;;;6.10;2.60;;;15.40;78.80;;;;;;5073525;28;20451;-65
2022/05/28 05:32:10;;;;;;;4.10;2.60;;;15.50;77.30;;;;;;5072586;28;20535;-64
2022/05/28 05:34:37;;;;;;;4.03;2.77;;;15.50;76.30;;;;;;5073415;28;20438;-64
2022/05/28 05:37:05;;;;;;;5.00;2.90;;;15.50;75.90;;;;;;5073242;28;20428;-65
2022/05/28 05:39:33;;;;;;;5.77;2.83;;;15.60;74.70;;;;;;5073352;28;20499;-64
2022/05/28 05:42:00;;;;;;;6.00;3.00;;;15.70;73.70;;;;;;5073072;28;20478;-64
2022/05/28 05:44:27;;;;;;;6.63;2.87;;;15.90;74.30;;;;;;5073144;28;20516;-65
2022/05/28 05:46:55;;;;;;;5.47;2.80;;;16.00;74.30;;;;;;5073166;28;20446;-65
2022/05/28 05:49:22;;;;;;;5.50;3.17;;;16.00;72.90;;;;;;5072524;28;20498;-64
2022/05/28 05:51:51;;;;;;;4.70;3.10;;;16.10;72.80;;;;;;5073228;28;20929;-64
2022/05/28 05:54:19;;;;;;;4.80;2.73;;;16.20;71.70;;;;;;5073048;28;20471;-64
2022/05/28 05:56:47;;;;;;;8.60;3.23;;;16.20;71.40;;;;;;5073040;28;20440;-64
2022/05/28 05:59:14;;;;;;;5.07;2.90;;;16.30;71.40;;;;;;5073114;28;20451;-64
2022/05/28 06:01:41;;;;;;;4.80;2.50;;;16.40;71.10;;;;;;5072817;28;20539;-65
2022/05/28 06:04:08;;;;;;;5.60;3.23;;;16.50;69.70;;;;;;5072963;28;20467;-65
2022/05/28 06:06:36;;;;;;;4.73;2.80;;;16.50;69.70;;;;;;5073050;28;20972;-64
2022/05/28 06:09:03;;;;;;;5.13;3.20;;;16.60;69.80;;;;;;5073112;28;20531;-65
2022/05/28 06:11:30;;;;;;;6.67;3.37;;;16.70;69.20;;;;;;5073209;28;20850;-65
2022/05/28 06:13:58;;;;;;;5.70;2.90;;;16.70;69.10;;;;;;5072957;28;20437;-65
2022/05/28 06:16:26;;;;;;;7.10;2.47;;;16.70;69.30;;;;;;5073050;28;20523;-65
2022/05/28 06:18:53;;;;;;;7.50;3.13;;;16.70;69.40;;;;;;5072773;28;20474;-65
2022/05/28 06:21:20;;;;;;;5.43;2.97;;;16.60;70.10;;;;;;5073128;28;20493;-65
2022/05/28 06:23:47;;;;;;;8.20;2.97;;;16.70;70.40;;;;;;5072815;28;20487;-64
2022/05/28 06:26:14;;;;;;;4.63;3.13;;;16.60;68.80;;;;;;5072914;28;20961;-65
2022/05/28 06:28:41;;;;;;;4.40;2.73;;;16.60;68.80;;;;;;5072812;28;20821;-64
2022/05/28 06:31:12;;;;;;;5.77;2.80;;;16.50;69.20;;;;;;5072920;28;20475;-64
2022/05/28 06:33:40;;;;;;;12.63;3.70;;;16.50;68.50;;;;;;5072724;28;20436;-64
2022/05/28 06:36:09;;;;;;;8.30;3.60;;;16.50;67.70;;;;;;5072763;28;20907;-64
2022/05/28 06:38:36;;;;;;;4.90;2.53;;;16.50;67.80;;;;;;5072467;28;20941;-64
2022/05/28 06:41:04;;;;;;;8.87;2.63;;;16.50;68.10;;;;;;5072437;28;20442;-64
2022/05/28 06:43:31;;;;;;;7.93;3.50;;;16.50;68.30;;;;;;5075080;28;20487;-64
2022/05/28 06:46:01;;;;;;;8.10;3.83;;;16.50;68.90;;;;;;5076379;28;20531;-64
2022/05/28 06:48:29;;;;;;;7.60;3.47;;;16.50;68.60;;;;;;5076163;28;20469;-64
2022/05/28 06:51:02;;;;;;;11.23;4.13;;;16.50;68.40;;;;;;5076137;28;20439;-64
2022/05/28 06:53:30;;;;;;;4.83;3.10;;;16.60;68.30;;;;;;5076340;28;20475;-64
2022/05/28 06:55:57;;;;;;;5.63;3.93;;;16.60;67.90;;;;;;5076477;28;20439;-64
2022/05/28 06:58:24;;;;;;;4.40;3.17;;;16.70;67.30;;;;;;5076137;28;20459;-64
2022/05/28 07:00:51;;;;;;;4.67;2.80;;;16.70;66.60;;;;;;5076126;28;20949;-66
2022/05/28 07:03:21;;;;;;;6.03;3.70;;;16.80;66.30;;;;;;5076271;28;20571;-64
2022/05/28 07:05:50;;;;;;;9.50;4.10;;;16.80;66.20;;;;;;5076335;28;20531;-64
2022/05/28 07:08:17;;;;;;;7.80;3.37;;;16.80;66.50;;;;;;5076218;28;20446;-65
2022/05/28 07:10:46;;;;;;;7.90;2.87;;;16.90;68.10;;;;;;5076178;28;20481;-64
2022/05/28 07:13:14;;;;;;;6.73;3.10;;;17.00;67.60;;;;;;5076152;28;20436;-65
2022/05/28 07:15:40;;;;;;;5.93;3.37;;;17.20;68.10;;;;;;5076042;28;20526;-64
2022/05/28 07:18:08;;;;;;;6.47;3.43;;;17.30;67.20;;;;;;5075858;28;20471;-65
2022/05/28 07:20:35;;;;;;;7.97;3.10;;;17.30;67.50;;;;;;5075989;28;20462;-64
2022/05/28 07:23:10;;;;;;;6.23;4.90;;;17.20;67.40;;;;;;5075878;28;21066;-65
2022/05/28 07:25:37;;;;;;;4.40;3.63;;;17.30;67.20;;;;;;5075955;28;20557;-64
2022/05/28 07:28:24;;;;;;;8.83;3.70;;;17.30;67.20;;;;;;5075538;28;20523;-65
2022/05/28 07:30:51;;;;;;;7.63;4.37;;;17.30;67.00;;;;;;5075599;28;20440;-65
2022/05/28 07:33:18;;;;;;;7.83;2.63;;;17.40;66.30;;;;;;5075459;28;20493;-65
2022/05/28 07:35:46;;;;;;;6.20;4.00;;;17.40;65.90;;;;;;5075282;28;20440;-65
2022/05/28 07:38:14;;;;;;;4.47;2.97;;;17.40;66.60;;;;;;5075385;28;20530;-64
2022/05/28 07:40:41;;;;;;;11.03;3.20;;;17.30;66.00;;;;;;5075622;28;21698;-64
2022/05/28 07:43:10;;;;;;;4.17;2.57;;;17.30;62.40;;;;;;5075162;28;20871;-64
2022/05/28 07:45:39;;;;;;;9.50;3.17;;;17.30;59.00;;;;;;5075222;28;20437;-64
2022/05/28 07:48:07;;;;;;;7.07;2.77;;;17.30;59.00;;;;;;5075059;28;20464;-64
2022/05/28 07:50:34;;;;;;;4.83;2.50;;;17.20;58.80;;;;;;5075533;28;20444;-64
2022/05/28 07:53:02;;;;;;;4.00;2.53;;;17.20;59.10;;;;;;5075292;28;20522;-65
2022/05/28 07:55:31;;;;;;;3.90;2.83;;;17.30;59.00;;;;;;5074576;28;20439;-65
2022/05/28 07:57:58;;;;;;;5.20;2.97;;;17.30;58.60;;;;;;5075083;28;20467;-64
2022/05/28 08:00:25;;;;;;;5.67;3.50;;;17.30;58.90;;;;;;5075219;28;20475;-66
2022/05/28 08:02:52;;;;;;;6.33;3.10;;;17.30;58.30;;;;;;5074916;28;20523;-65
2022/05/28 08:05:18;;;;;;;9.10;3.50;;;17.30;58.30;;;;;;5074981;28;20531;-64
2022/05/28 08:07:45;;;;;;;7.30;4.03;;;17.30;57.90;;;;;;5075219;28;20440;-64
2022/05/28 08:10:12;;;;;;;4.90;3.00;;;17.30;58.20;;;;;;5075060;28;20519;-64
2022/05/28 08:12:41;;;;;;;11.13;3.63;;;17.40;58.90;;;;;;5074526;28;20443;-65
2022/05/28 08:15:11;;;;;;;4.87;2.83;;;17.60;59.80;;;;;;5075043;28;20844;-65
2022/05/28 08:17:38;;;;;;;4.80;2.80;;;17.90;58.90;;;;;;5074959;28;20486;-64
2022/05/28 08:20:06;;;;;;;6.37;2.77;;;18.30;59.40;;;;;;5074533;28;20939;-64
2022/05/28 08:25:17;;;;;;;5.33;2.80;;;19.00;56.90;;;;;;5074799;28;20470;-64
2022/05/28 08:27:46;;;;;;;14.60;3.17;;;19.10;54.90;;;;;;5074834;28;20463;-64
2022/05/28 08:30:14;;;;;;;5.90;2.77;;;19.10;54.40;;;;;;5074190;28;20523;-65
2022/05/28 08:32:41;;;;;;;4.47;2.63;;;19.00;54.90;;;;;;5074504;28;20531;-64
2022/05/28 08:35:08;;;;;;;6.87;3.50;;;18.90;54.00;;;;;;5074179;28;20482;-65
2022/05/28 08:37:35;;;;;;;5.87;3.10;;;18.70;53.90;;;;;;5074469;28;20444;-64
2022/05/28 08:40:02;;;;;;;7.73;3.30;;;18.70;54.10;;;;;;5074486;28;20926;-64
2022/05/28 08:42:30;;;;;;;7.37;3.40;;;18.70;54.40;;;;;;5074028;28;20442;-65
2022/05/28 08:45:04;;;;;;;6.60;2.70;;;18.60;54.10;;;;;;5074329;28;20490;-66
2022/05/28 08:47:36;;;;;;;11.07;2.60;;;18.50;52.80;;;;;;5073854;28;20468;-65
2022/05/28 08:50:08;;;;;;;7.33;2.73;;;18.50;53.90;;;;;;5074269;28;20523;-65
2022/05/28 08:52:41;;;;;;;5.40;2.63;;;18.50;53.70;;;;;;5074280;28;20444;-65
2022/05/28 08:55:13;;;;;;;6.53;2.80;;;18.60;53.50;;;;;;5074160;28;20519;-65
2022/05/28 08:57:49;;;;;;;4.47;2.63;;;18.90;53.10;;;;;;5073826;28;20437;-64
2022/05/28 09:00:22;;;;;;;8.60;3.10;;;19.10;52.20;;;;;;5074052;28;20471;-65
2022/05/28 09:02:51;;;;;;;6.03;2.50;;;19.10;50.90;;;;;;5074052;28;20486;-65
2022/05/28 09:05:26;;;;;;;7.23;2.73;;;19.10;51.20;;;;;;5073613;28;20804;-64
2022/05/28 09:07:56;;;;;;;7.87;3.10;;;19.00;50.70;;;;;;5073698;28;20505;-66
2022/05/28 09:10:23;;;;;;;4.40;2.40;;;19.00;51.10;;;;;;5073430;28;20424;-65
2022/05/28 09:12:56;;;;;;;8.60;2.83;;;19.00;51.20;;;;;;5073946;28;20479;-65
2022/05/28 09:15:25;;;;;;;6.97;2.90;;;19.00;51.80;;;;;;5073810;28;20436;-65
2022/05/28 09:17:57;;;;;;;5.47;2.83;;;19.20;52.90;;;;;;5073229;28;20831;-65
2022/05/28 09:20:28;;;;;;;4.60;2.30;;;19.50;52.70;;;;;;5073347;28;20436;-65
2022/05/28 09:22:55;;;;;;;5.70;2.37;;;19.80;51.70;;;;;;5073321;28;20429;-65
2022/05/28 09:25:26;;;;;;;4.43;2.57;;;19.90;50.40;;;;;;5073224;28;20468;-65
2022/05/28 09:28:03;;;;;;;5.53;2.50;;;20.00;50.10;;;;;;5073221;28;20436;-65
2022/05/28 09:30:43;;;;;;;3.40;2.00;;;19.90;49.10;;;;;;5073171;28;20824;-65
2022/05/28 09:33:28;;;;;;;7.33;2.83;;;19.70;48.10;;;;;;5073109;28;20459;-64
2022/05/28 09:36:05;;;;;;;5.50;2.97;;;19.60;48.30;;;;;;5072852;28;20428;-64
2022/05/28 09:38:43;;;;;;;6.50;2.40;;;19.60;47.70;;;;;;5073187;28;20448;-65
2022/05/28 09:41:33;;;;;;;14.73;2.53;;;19.50;47.00;;;;;;5073209;28;20482;-65
2022/05/28 09:44:10;;;;;;;4.53;1.80;;;19.40;47.20;;;;;;5072751;28;21041;-65
2022/05/28 09:46:39;;;;;;;7.77;2.50;;;19.40;47.80;;;;;;5073137;28;20489;-64
2022/05/28 09:49:12;;;;;;;5.53;2.13;;;19.40;47.80;;;;;;5073070;28;20551;-65
2022/05/28 09:51:39;;;;;;;4.93;1.90;;;19.20;48.20;;;;;;5073106;28;20949;-64
2022/05/28 09:54:16;;;;;;;4.70;1.97;;;19.10;47.30;;;;;;5073178;28;20819;-64
2022/05/28 09:56:45;;;;;;;5.37;2.00;;;19.00;47.70;;;;;;5073265;28;20435;-65
2022/05/28 09:59:24;;;;;;;7.47;2.70;;;18.80;48.00;;;;;;5072437;28;20487;-64
2022/05/28 10:01:57;;;;;;;6.80;2.30;;;18.60;47.40;;;;;;5073036;28;20539;-65
2022/05/28 10:04:30;;;;;;;4.93;1.90;;;18.50;46.70;;;;;;5073076;28;20515;-66
2022/05/28 10:06:59;;;;;;;5.97;2.07;;;18.40;47.70;;;;;;5073114;28;20444;-65
2022/05/28 10:09:30;;;;;;;5.67;2.00;;;18.50;48.00;;;;;;5072824;28;20450;-64
2022/05/28 10:11:59;;;;;;;6.10;2.13;;;18.70;48.70;;;;;;5072828;28;20458;-64
2022/05/28 10:14:29;;;;;;;6.37;2.30;;;19.00;47.30;;;;;;5072953;28;20524;-65
2022/05/28 10:17:02;;;;;;;3.97;1.90;;;19.10;46.70;;;;;;5072932;28;20527;-65
2022/05/28 10:19:36;;;;;;;5.87;2.70;;;19.20;46.00;;;;;;5077206;28;20817;-65
2022/05/28 10:22:06;;;;;;;7.03;2.43;;;19.10;45.60;;;;;;5076579;28;20450;-65
2022/05/28 10:24:43;;;;;;;4.83;1.93;;;19.10;46.10;;;;;;5076838;28;20519;-65
2022/05/28 10:27:27;;;;;;;8.10;2.00;;;19.10;46.30;;;;;;5077029;28;20436;-65
2022/05/28 10:29:57;;;;;;;7.13;2.47;;;19.10;46.00;;;;;;5076871;28;20431;-65
2022/05/28 10:32:31;;;;;;;8.50;2.30;;;19.00;45.80;;;;;;5076855;28;20443;-64
2022/05/28 10:35:01;;;;;;;3.77;1.67;;;18.90;45.90;;;;;;5077004;28;20462;-64
2022/05/28 10:37:28;;;;;;;5.43;1.90;;;18.90;46.50;;;;;;5076549;28;20436;-65
2022/05/28 10:40:10;;;;;;;7.70;2.10;;;18.90;45.40;;;;;;5076811;28;20538;-66
2022/05/28 10:42:38;;;;;;;6.13;2.57;;;18.80;45.00;;;;;;5076760;28;20455;-64
2022/05/28 10:45:07;;;;;;;5.00;2.17;;;18.70;44.90;;;;;;5076539;28;20818;-64
2022/05/28 10:48:00;;;;;;;10.93;2.07;;;18.60;44.20;;;;;;5076343;28;20470;-64
2022/05/28 10:50:37;;;;;;;4.30;1.57;;;18.40;44.10;;;;;;5076461;28;20505;-65
2022/05/28 10:53:17;;;;;;;3.27;1.87;;;18.30;44.30;;;;;;5076132;28;20981;-64
2022/05/28 10:55:57;;;;;;;3.37;1.70;;;18.20;43.60;;;;;;5076536;28;20447;-64
2022/05/28 10:58:34;;;;;;;4.93;1.60;;;18.20;44.10;;;;;;5076342;28;20443;-65
2022/05/28 11:01:07;;;;;;;6.73;2.73;;;18.20;44.10;;;;;;5076187;28;20466;-65
2022/05/28 11:04:02;;;;;;;2.93;1.70;;;18.30;45.10;;;;;;5076387;28;20525;-64
2022/05/28 11:07:00;;;;;;;7.10;2.17;;;18.30;45.00;;;;;;5076015;28;20519;-67
2022/05/28 11:09:39;;;;;;;7.80;2.67;;;18.50;44.90;;;;;;5076354;28;20436;-64
2022/05/28 11:12:21;;;;;;;8.80;2.47;;;18.60;44.60;;;;;;5076140;28;20428;-65
2022/05/28 11:15:18;;;;;;;3.20;1.63;;;18.80;43.40;;;;;;5076150;28;20525;-64
2022/05/28 11:18:07;;;;;;;4.63;1.50;;;19.00;43.90;;;;;;5076118;28;20435;-64
2022/05/28 11:20:44;;;;;;;3.47;1.97;;;19.00;43.30;;;;;;5076029;28;20443;-64
2022/05/28 11:23:30;;;;;;;7.10;2.20;;;19.10;42.00;;;;;;5075834;28;20526;-64
2022/05/28 11:26:15;;;;;;;4.60;1.70;;;19.30;43.00;;;;;;5076030;28;20825;-64
2022/05/28 11:29:14;;;;;;;4.60;1.77;;;19.30;41.90;;;;;;5074453;28;20914;-64
2022/05/28 11:31:46;;;;;;;8.33;1.97;;;19.50;42.20;;;;;;5075893;28;20778;-64
2022/05/28 11:34:18;;;;;;;5.37;1.70;;;19.50;41.70;;;;;;5075810;28;20448;-65
2022/05/28 11:36:54;;;;;;;6.40;2.10;;;19.50;41.10;;;;;;5075715;28;20848;-64
2022/05/28 11:39:28;;;;;;;5.23;1.80;;;19.50;41.40;;;;;;5075589;28;20440;-65
2022/05/28 11:41:59;;;;;;;6.30;1.83;;;19.60;40.90;;;;;;5075456;28;20522;-65
2022/05/28 11:44:32;;;;;;;8.43;1.90;;;19.60;40.90;;;;;;5075378;28;20635;-65
2022/05/28 11:47:23;;;;;;;6.70;2.10;;;19.60;40.80;;;;;;5075750;28;20868;-65
2022/05/28 11:52:53;;;;;;;5.70;1.70;;;19.60;40.70;;;;;;5075004;28;20432;-64
2022/05/28 11:55:23;;;;;;;7.00;1.50;;;19.60;41.70;;;;;;5075387;28;20447;-64
2022/05/28 11:57:55;;;;;;;4.30;1.50;;;19.60;41.20;;;;;;5075259;28;20476;-64
2022/05/28 12:00:24;;;;;;;4.07;1.40;;;19.70;41.20;;;;;;5075331;28;20444;-65
2022/05/28 12:02:55;;;;;;;5.33;2.20;;;19.80;41.70;;;;;;5075205;28;20796;-66
2022/05/28 12:05:25;;;;;;;4.13;1.50;;;20.10;42.60;;;;;;5074744;28;20548;-65
2022/05/28 12:07:57;;;;;;;6.47;2.30;;;20.40;40.80;;;;;;5075017;28;20765;-64
2022/05/28 12:10:45;;;;;;;7.37;1.83;;;20.70;41.80;;;;;;5075270;28;20440;-65
2022/05/28 12:13:12;;;;;;;6.47;2.00;;;20.90;41.50;;;;;;5074529;28;20447;-64
2022/05/28 12:15:39;;;;;;;6.40;2.10;;;21.10;40.10;;;;;;5074801;28;20440;-65
2022/05/28 12:18:21;;;;;;;4.67;1.80;;;21.20;40.50;;;;;;5074927;28;20471;-65
2022/05/28 12:20:58;;;;;;;8.17;1.97;;;21.50;41.20;;;;;;5074923;28;20526;-64
2022/05/28 12:23:31;;;;;;;7.33;2.47;;;21.80;41.40;;;;;;5074897;28;20435;-65
2022/05/28 12:26:01;;;;;;;5.00;1.60;;;22.10;39.80;;;;;;5074639;28;20486;-64
2022/05/28 12:28:31;;;;;;;4.17;1.43;;;22.30;38.80;;;;;;5074499;28;20519;-64
2022/05/28 12:31:02;;;;;;;5.70;1.50;;;22.40;37.70;;;;;;5074429;28;20462;-65
2022/05/28 12:33:31;;;;;;;3.57;1.20;;;22.60;39.70;;;;;;5074210;28;20425;-65
2022/05/28 12:36:09;;;;;;;5.33;1.63;;;22.70;37.90;;;;;;5074685;28;20522;-65
2022/05/28 12:38:44;;;;;;;9.10;1.70;;;22.80;38.30;;;;;;5074509;28;20434;-65
2022/05/28 12:41:21;;;;;;;8.33;1.63;;;22.70;36.70;;;;;;5074180;28;20523;-65
2022/05/28 12:44:06;;;;;;;6.23;1.53;;;22.60;37.60;;;;;;5074118;28;20518;-65
2022/05/28 12:46:42;;;;;;;5.27;1.33;;;22.50;37.50;;;;;;5074478;28;20432;-65
2022/05/28 12:49:13;;;;;;;4.60;1.50;;;22.40;37.70;;;;;;5073617;28;20463;-65
2022/05/28 12:52:12;;;;;;;3.40;1.37;;;22.30;37.90;;;;;;5074205;28;20468;-65
2022/05/28 12:54:42;;;;;;;3.27;1.60;;;22.10;37.40;;;;;;5074109;28;20436;-65
2022/05/28 12:57:14;;;;;;;5.07;1.70;;;22.00;38.10;;;;;;5074179;28;20560;-65
2022/05/28 12:59:43;;;;;;;5.40;1.70;;;21.90;38.40;;;;;;5074117;28;20440;-64
2022/05/28 13:02:27;;;;;;;4.67;1.47;;;21.70;37.40;;;;;;5074208;28;20849;-64
2022/05/28 13:05:03;;;;;;;5.37;1.60;;;21.60;37.20;;;;;;5073940;28;20515;-64
2022/05/28 13:07:35;;;;;;;3.37;1.80;;;21.50;35.40;;;;;;5073804;28;20435;-65
2022/05/28 13:10:17;;;;;;;4.90;1.40;;;21.40;37.00;;;;;;5073856;28;20534;-65